Time;durP1;ratioP1;P1;durP2;ratioP2;P2;SDS_P1;SDS_P2;PMS_P1;PMS_P2;Temp;Humidity;BMP_temperature;BMP_pressure;BME280_temperature;BME280_humidity;BME280_pressure;Samples;Min_cycle;Max_cycle;Signal;HPM_P1;HPM_P2
2022/10/28 00:02:02;;;;;;;68.30;28.95;;;;;;;;;;5053038;28;20269;-42
2022/10/28 00:04:28;;;;;;;66.27;28.57;;;;;;;;;;5052998;28;20049;-43
2022/10/28 00:06:53;;;;;;;63.00;29.37;;;;;;;;;;5052648;28;20285;-43
2022/10/28 00:09:18;;;;;;;49.57;23.13;;;;;;;;;;5052841;28;20238;-43
2022/10/28 00:11:43;;;;;;;69.63;30.23;;;;;;;;;;5052672;28;20697;-43
2022/10/28 00:14:09;;;;;;;68.93;29.00;;;;;;;;;;5053315;28;20285;-41
2022/10/28 00:16:36;;;;;;;68.03;29.40;;;;;;;;;;5052958;28;20013;-43
2022/10/28 00:19:03;;;;;;;68.78;27.33;;;;;;;;;;5052747;28;20035;-43
2022/10/28 00:21:29;;;;;;;70.45;29.13;;;;;;;;;;5051494;28;20403;-43
2022/10/28 00:23:55;;;;;;;67.93;28.95;;;;;;;;;;5052563;28;20029;-38
2022/10/28 00:26:21;;;;;;;69.28;30.02;;;;;;;;;;5052777;28;20468;-43
2022/10/28 00:28:48;;;;;;;78.78;31.67;;;;;;;;;;5052710;28;20017;-43
2022/10/28 00:31:14;;;;;;;70.80;29.33;;;;;;;;;;5052761;28;20100;-43
2022/10/28 00:33:39;;;;;;;67.75;28.85;;;;;;;;;;5052666;28;20025;-42
2022/10/28 00:36:08;;;;;;;68.22;30.23;;;;;;;;;;5052652;28;20440;-42
2022/10/28 00:38:34;;;;;;;80.47;31.58;;;;;;;;;;5052183;28;20372;-43
2022/10/28 00:40:59;;;;;;;72.03;29.25;;;;;;;;;;5052683;28;20021;-42
2022/10/28 00:43:41;;;;;;;70.05;28.02;;;;;;;;;;5052912;28;20025;-42
2022/10/28 00:46:12;;;;;;;65.95;27.63;;;;;;;;;;5052333;28;20118;-43
2022/10/28 00:48:40;;;;;;;61.10;27.00;;;;;;;;;;5052436;28;20472;-43
2022/10/28 00:51:06;;;;;;;62.83;26.60;;;;;;;;;;5052155;28;20131;-43
2022/10/28 00:53:32;;;;;;;67.93;27.55;;;;;;;;;;5052518;28;20013;-43
2022/10/28 00:55:59;;;;;;;64.65;27.27;;;;;;;;;;5052512;28;20021;-43
2022/10/28 00:58:25;;;;;;;64.57;25.90;;;;;;;;;;5052422;28;20032;-43
2022/10/28 01:00:50;;;;;;;61.42;26.13;;;;;;;;;;5052339;28;20017;-42
2022/10/28 01:03:15;;;;;;;61.25;25.15;;;;;;;;;;5052185;28;20028;-43
2022/10/28 01:05:41;;;;;;;53.77;23.47;;;;;;;;;;5052012;28;20031;-43
2022/10/28 01:08:07;;;;;;;52.35;22.80;;;;;;;;;;5052502;28;20296;-43
2022/10/28 01:10:50;;;;;;;58.10;24.25;;;;;;;;;;5052372;28;20017;-42
2022/10/28 01:13:34;;;;;;;54.13;22.48;;;;;;;;;;5055997;28;20064;-42
2022/10/28 01:16:02;;;;;;;55.75;23.45;;;;;;;;;;5055772;28;20406;-43
2022/10/28 01:18:32;;;;;;;49.03;23.33;;;;;;;;;;5056260;28;20017;-43
2022/10/28 01:21:00;;;;;;;45.15;21.08;;;;;;;;;;5056148;28;20040;-43
2022/10/28 01:23:26;;;;;;;45.92;21.90;;;;;;;;;;5056048;28;20476;-42
2022/10/28 01:26:06;;;;;;;53.10;22.30;;;;;;;;;;5055800;28;20060;-42
2022/10/28 01:28:50;;;;;;;44.78;21.05;;;;;;;;;;5055527;28;20017;-44
2022/10/28 01:31:34;;;;;;;52.95;23.13;;;;;;;;;;5055846;28;20025;-42
2022/10/28 01:34:11;;;;;;;50.28;20.88;;;;;;;;;;5055588;28;20511;-43
2022/10/28 01:36:43;;;;;;;53.65;22.45;;;;;;;;;;5055795;28;20017;-43
2022/10/28 01:39:09;;;;;;;53.47;22.20;;;;;;;;;;5055409;28;20024;-41
2022/10/28 01:41:41;;;;;;;55.53;23.00;;;;;;;;;;5055512;28;20021;-43
2022/10/28 01:44:26;;;;;;;56.40;24.35;;;;;;;;;;5055576;28;20106;-43
2022/10/28 01:46:57;;;;;;;52.67;22.30;;;;;;;;;;5055352;28;20452;-43
2022/10/28 01:49:43;;;;;;;48.60;21.92;;;;;;;;;;5055172;28;20348;-43
2022/10/28 01:52:11;;;;;;;58.55;24.45;;;;;;;;;;5054438;28;20071;-43
2022/10/28 01:54:37;;;;;;;54.70;22.52;;;;;;;;;;5055438;28;20032;-42
2022/10/28 01:57:03;;;;;;;62.00;24.50;;;;;;;;;;5055722;28;20021;-43
2022/10/28 01:59:29;;;;;;;52.95;24.08;;;;;;;;;;5055216;28;20363;-44
2022/10/28 02:01:55;;;;;;;62.67;24.38;;;;;;;;;;5054865;28;20017;-43
2022/10/28 02:04:20;;;;;;;51.92;22.23;;;;;;;;;;5053970;28;20108;-42
2022/10/28 02:06:48;;;;;;;55.77;23.10;;;;;;;;;;5055060;28;20033;-42
2022/10/28 02:09:49;;;;;;;55.90;22.70;;;;;;;;;;5055069;28;20238;-43
2022/10/28 02:12:14;;;;;;;54.67;23.08;;;;;;;;;;5052422;28;20583;-42
2022/10/28 02:14:58;;;;;;;46.53;22.17;;;;;;;;;;5054329;28;20515;-43
2022/10/28 02:17:42;;;;;;;50.13;22.27;;;;;;;;;;5054860;28;20250;-43
2022/10/28 02:20:18;;;;;;;51.35;20.55;;;;;;;;;;5054696;28;20437;-43
2022/10/28 02:22:43;;;;;;;50.50;21.73;;;;;;;;;;5053549;28;20103;-43
2022/10/28 02:25:29;;;;;;;49.97;20.60;;;;;;;;;;5054876;28;20100;-40
2022/10/28 02:28:08;;;;;;;37.55;17.63;;;;;;;;;;5054761;28;20025;-42
2022/10/28 02:30:40;;;;;;;45.53;19.23;;;;;;;;;;5054481;28;20503;-43
2022/10/28 02:33:08;;;;;;;48.22;20.27;;;;;;;;;;5054003;28;20626;-42
2022/10/28 02:35:36;;;;;;;44.35;19.27;;;;;;;;;;5054602;28;20041;-42
2022/10/28 02:38:04;;;;;;;52.75;21.58;;;;;;;;;;5054452;28;20017;-42
2022/10/28 02:40:29;;;;;;;46.75;20.00;;;;;;;;;;5054522;28;20013;-40
2022/10/28 02:42:57;;;;;;;43.75;19.75;;;;;;;;;;5054315;28;20071;-42
2022/10/28 02:45:25;;;;;;;54.47;21.65;;;;;;;;;;5052978;28;20376;-43
2022/10/28 02:47:53;;;;;;;47.95;20.98;;;;;;;;;;5053805;28;20045;-43
2022/10/28 02:50:20;;;;;;;49.20;20.52;;;;;;;;;;5052990;28;20066;-43
2022/10/28 02:52:48;;;;;;;51.08;21.67;;;;;;;;;;5054318;28;20475;-43
2022/10/28 02:55:14;;;;;;;49.03;21.20;;;;;;;;;;5053979;28;20138;-42
2022/10/28 02:57:40;;;;;;;45.72;20.13;;;;;;;;;;5054124;28;20462;-43
2022/10/28 03:00:08;;;;;;;41.38;19.10;;;;;;;;;;5053728;28;20053;-43
2022/10/28 03:02:33;;;;;;;50.40;20.48;;;;;;;;;;5053974;28;20113;-43
2022/10/28 03:04:58;;;;;;;51.95;21.23;;;;;;;;;;5054060;28;20467;-43
2022/10/28 03:07:23;;;;;;;46.97;20.33;;;;;;;;;;5053797;28;20472;-42
2022/10/28 03:09:49;;;;;;;44.90;20.27;;;;;;;;;;5053691;28;20234;-44
2022/10/28 03:12:14;;;;;;;52.97;20.98;;;;;;;;;;5053669;28;20083;-43
2022/10/28 03:14:39;;;;;;;52.58;20.40;;;;;;;;;;5053478;28;20103;-43
2022/10/28 03:17:06;;;;;;;49.92;21.83;;;;;;;;;;5053836;28;20104;-43
2022/10/28 03:19:31;;;;;;;49.05;22.25;;;;;;;;;;5053771;28;20028;-42
2022/10/28 03:21:57;;;;;;;52.75;21.70;;;;;;;;;;5053637;28;20013;-43
2022/10/28 03:24:22;;;;;;;52.17;22.70;;;;;;;;;;5053519;28;20021;-43
2022/10/28 03:26:47;;;;;;;46.10;20.40;;;;;;;;;;5053573;28;20285;-43
2022/10/28 03:29:12;;;;;;;54.47;22.30;;;;;;;;;;5052026;28;20027;-44
2022/10/28 03:31:38;;;;;;;54.03;21.63;;;;;;;;;;5053390;28;20237;-43
2022/10/28 03:34:03;;;;;;;52.75;23.02;;;;;;;;;;5053386;28;20242;-42
2022/10/28 03:36:28;;;;;;;45.70;19.17;;;;;;;;;;5053520;28;20371;-44
2022/10/28 03:38:53;;;;;;;41.03;18.37;;;;;;;;;;5053116;28;20268;-43
2022/10/28 03:41:18;;;;;;;43.50;19.30;;;;;;;;;;5053424;28;20245;-43
2022/10/28 03:43:44;;;;;;;45.27;19.10;;;;;;;;;;5053091;28;20245;-44
2022/10/28 03:46:09;;;;;;;49.50;21.13;;;;;;;;;;5052817;28;20289;-43
2022/10/28 03:48:34;;;;;;;55.60;21.10;;;;;;;;;;5053196;28;20202;-43
2022/10/28 03:50:59;;;;;;;47.63;19.83;;;;;;;;;;5053155;28;20734;-44
2022/10/28 03:53:25;;;;;;;53.20;20.20;;;;;;;;;;5053030;28;20028;-44
2022/10/28 03:55:51;;;;;;;53.07;21.37;;;;;;;;;;5051603;28;20256;-44
2022/10/28 03:58:16;;;;;;;48.55;20.55;;;;;;;;;;5053033;28;20723;-43
2022/10/28 04:00:41;;;;;;;52.87;21.03;;;;;;;;;;5052631;28;20017;-44
2022/10/28 04:03:06;;;;;;;53.03;20.63;;;;;;;;;;5052918;28;20234;-44
2022/10/28 04:05:32;;;;;;;51.87;21.53;;;;;;;;;;5052716;28;20086;-43
2022/10/28 04:07:57;;;;;;;53.50;21.57;;;;;;;;;;5052751;28;20276;-44
2022/10/28 04:10:22;;;;;;;54.78;20.90;;;;;;;;;;5052699;28;20305;-43
2022/10/28 04:12:47;;;;;;;51.90;20.97;;;;;;;;;;5052512;28;20089;-43
2022/10/28 04:15:13;;;;;;;45.30;19.98;;;;;;;;;;5052431;28;20570;-43
2022/10/28 04:17:38;;;;;;;52.40;21.53;;;;;;;;;;5051454;28;20103;-43
2022/10/28 04:20:03;;;;;;;44.33;17.73;;;;;;;;;;5052868;28;20238;-44
2022/10/28 04:22:29;;;;;;;47.97;17.83;;;;;;;;;;5052594;28;20254;-43
2022/10/28 04:24:54;;;;;;;47.97;19.00;;;;;;;;;;5052901;28;20368;-42
2022/10/28 04:27:19;;;;;;;44.78;19.33;;;;;;;;;;5041065;28;20344;-43
2022/10/28 04:29:45;;;;;;;42.53;18.05;;;;;;;;;;5032714;28;20005;-43
2022/10/28 04:32:10;;;;;;;49.03;19.80;;;;;;;;;;5030958;28;20364;-43
2022/10/28 04:34:35;;;;;;;48.43;18.83;;;;;;;;;;5031279;28;20247;-43
2022/10/28 04:37:00;;;;;;;35.97;16.00;;;;;;;;;;5032595;28;20231;-43
2022/10/28 04:39:25;;;;;;;52.77;20.10;;;;;;;;;;5032304;28;20329;-43
2022/10/28 04:41:51;;;;;;;41.40;18.80;;;;;;;;;;5032946;28;20235;-43
2022/10/28 04:44:16;;;;;;;44.17;16.77;;;;;;;;;;5032268;28;20297;-44
2022/10/28 04:46:41;;;;;;;49.67;20.03;;;;;;;;;;5033726;28;20145;-43
2022/10/28 04:49:06;;;;;;;48.20;18.77;;;;;;;;;;5037643;28;20238;-41
2022/10/28 04:51:32;;;;;;;42.08;17.30;;;;;;;;;;5042497;28;20246;-43
2022/10/28 04:53:57;;;;;;;39.97;18.60;;;;;;;;;;5055395;28;20062;-43
2022/10/28 04:56:22;;;;;;;40.55;18.23;;;;;;;;;;5056129;28;20329;-42
2022/10/28 04:58:47;;;;;;;44.60;18.90;;;;;;;;;;5055091;28;20060;-44
2022/10/28 05:01:13;;;;;;;47.85;19.50;;;;;;;;;;5055885;28;20693;-44
2022/10/28 05:03:38;;;;;;;45.17;18.02;;;;;;;;;;5054526;28;20016;-46
2022/10/28 05:06:03;;;;;;;44.08;18.60;;;;;;;;;;5055866;28;20021;-44
2022/10/28 05:08:28;;;;;;;46.60;19.80;;;;;;;;;;5055830;28;20047;-45
2022/10/28 05:10:54;;;;;;;47.15;18.30;;;;;;;;;;5055884;28;20060;-44
2022/10/28 05:13:19;;;;;;;44.45;18.10;;;;;;;;;;5055818;28;20452;-45
2022/10/28 05:15:48;;;;;;;47.95;18.75;;;;;;;;;;5055729;28;20056;-43
2022/10/28 05:18:13;;;;;;;54.50;19.73;;;;;;;;;;5056155;28;20025;-43
2022/10/28 05:20:39;;;;;;;45.50;18.15;;;;;;;;;;5055970;28;20023;-44
2022/10/28 05:23:04;;;;;;;47.83;20.27;;;;;;;;;;5055693;28;20368;-43
2022/10/28 05:25:29;;;;;;;50.03;18.63;;;;;;;;;;5055732;28;20055;-44
2022/10/28 05:27:58;;;;;;;48.83;18.97;;;;;;;;;;5054202;28;20017;-45
2022/10/28 05:30:24;;;;;;;42.85;17.35;;;;;;;;;;5055422;28;20230;-43
2022/10/28 05:32:49;;;;;;;39.38;16.88;;;;;;;;;;5055890;28;20025;-43
2022/10/28 05:35:14;;;;;;;40.13;15.43;;;;;;;;;;5055410;28;20017;-43
2022/10/28 05:37:40;;;;;;;39.47;16.80;;;;;;;;;;5050700;28;20330;-43
2022/10/28 05:40:05;;;;;;;54.85;16.85;;;;;;;;;;5042180;28;20254;-44
2022/10/28 05:42:30;;;;;;;33.75;14.38;;;;;;;;;;5055240;28;20082;-44
2022/10/28 05:44:56;;;;;;;44.42;16.60;;;;;;;;;;5048224;28;20758;-43
2022/10/28 05:47:21;;;;;;;39.35;16.23;;;;;;;;;;5033743;28;20049;-43
2022/10/28 05:49:46;;;;;;;38.35;16.75;;;;;;;;;;5035149;28;20039;-44
2022/10/28 05:52:12;;;;;;;35.78;14.18;;;;;;;;;;5035201;28;20017;-44
2022/10/28 05:54:37;;;;;;;54.47;16.83;;;;;;;;;;5035133;28;20017;-43
2022/10/28 05:57:02;;;;;;;32.38;15.02;;;;;;;;;;5036359;28;20500;-44
2022/10/28 05:59:28;;;;;;;35.63;15.70;;;;;;;;;;5043043;28;20025;-44
2022/10/28 06:01:53;;;;;;;36.17;14.45;;;;;;;;;;5039082;28;20013;-43
2022/10/28 06:04:18;;;;;;;38.05;15.88;;;;;;;;;;5047373;28;20028;-44
2022/10/28 06:06:44;;;;;;;35.45;15.68;;;;;;;;;;5043547;28;20034;-44
2022/10/28 06:09:09;;;;;;;32.60;15.05;;;;;;;;;;5040286;28;20028;-43
2022/10/28 06:11:35;;;;;;;39.83;15.05;;;;;;;;;;5054902;28;20102;-44
2022/10/28 06:14:00;;;;;;;37.75;15.23;;;;;;;;;;5052373;28;20487;-44
2022/10/28 06:16:25;;;;;;;33.92;15.73;;;;;;;;;;5045763;28;20099;-44
2022/10/28 06:18:51;;;;;;;33.40;14.20;;;;;;;;;;5047358;28;20482;-44
2022/10/28 06:21:16;;;;;;;39.47;15.18;;;;;;;;;;5043340;28;20009;-44
2022/10/28 06:23:41;;;;;;;31.65;13.48;;;;;;;;;;5051076;28;20542;-44
2022/10/28 06:26:08;;;;;;;36.55;13.98;;;;;;;;;;5051364;28;20059;-44
2022/10/28 06:28:33;;;;;;;33.53;13.43;;;;;;;;;;5073684;28;20462;-44
2022/10/28 06:31:06;;;;;;;30.37;12.33;;;;;;;;;;5058886;28;20032;-43
2022/10/28 06:33:32;;;;;;;31.13;13.82;;;;;;;;;;5041142;28;20266;-44
2022/10/28 06:35:57;;;;;;;35.17;14.48;;;;;;;;;;5039206;28;20044;-47
2022/10/28 06:38:23;;;;;;;37.83;15.38;;;;;;;;;;5040596;28;20051;-44
2022/10/28 06:40:49;;;;;;;48.38;15.82;;;;;;;;;;5032664;28;20022;-46
2022/10/28 06:43:15;;;;;;;47.92;20.30;;;;;;;;;;5033634;28;20026;-44
2022/10/28 06:45:40;;;;;;;35.97;15.13;;;;;;;;;;5033622;28;22695;-44
2022/10/28 06:48:05;;;;;;;38.72;15.73;;;;;;;;;;5047606;28;20045;-45
2022/10/28 06:50:31;;;;;;;34.88;15.07;;;;;;;;;;5047859;28;20048;-45
2022/10/28 06:52:57;;;;;;;30.40;12.82;;;;;;;;;;5042410;28;20013;-45
2022/10/28 06:55:23;;;;;;;30.05;13.20;;;;;;;;;;5037552;28;20029;-45
2022/10/28 06:57:48;;;;;;;35.70;14.93;;;;;;;;;;5039045;28;20052;-46
2022/10/28 07:00:14;;;;;;;42.13;16.00;;;;;;;;;;5047194;28;20086;-44
2022/10/28 07:02:39;;;;;;;34.78;14.52;;;;;;;;;;5035371;28;20094;-45
2022/10/28 07:05:05;;;;;;;42.25;16.80;;;;;;;;;;5035398;28;20034;-44
2022/10/28 07:07:30;;;;;;;41.10;16.63;;;;;;;;;;5032429;28;20164;-44
2022/10/28 07:09:55;;;;;;;55.25;15.68;;;;;;;;;;5033162;28;20131;-45
2022/10/28 07:12:21;;;;;;;51.10;15.70;;;;;;;;;;5032141;28;20016;-46
2022/10/28 07:14:46;;;;;;;55.88;17.67;;;;;;;;;;5031441;28;20045;-46
2022/10/28 07:17:11;;;;;;;47.75;16.40;;;;;;;;;;5034658;28;20034;-47
2022/10/28 07:19:37;;;;;;;49.20;15.45;;;;;;;;;;5034856;28;20083;-43
2022/10/28 07:22:02;;;;;;;56.42;15.05;;;;;;;;;;5038119;28;20032;-45
2022/10/28 07:24:27;;;;;;;49.25;15.30;;;;;;;;;;5032187;28;20091;-45
2022/10/28 07:26:53;;;;;;;46.97;15.65;;;;;;;;;;5039970;28;20108;-43
2022/10/28 07:29:18;;;;;;;43.75;15.48;;;;;;;;;;5044059;28;20029;-43
2022/10/28 07:31:43;;;;;;;46.15;16.40;;;;;;;;;;5040608;28;20028;-45
2022/10/28 07:34:09;;;;;;;50.28;16.92;;;;;;;;;;5034867;28;20149;-46
2022/10/28 07:36:34;;;;;;;44.42;16.08;;;;;;;;;;5040762;28;20025;-43
2022/10/28 07:38:59;;;;;;;39.05;15.10;;;;;;;;;;5046822;28;20021;-46
2022/10/28 07:41:25;;;;;;;33.92;14.18;;;;;;;;;;5028369;28;20026;-44
2022/10/28 07:43:50;;;;;;;40.35;15.10;;;;;;;;;;5036467;28;20048;-43
2022/10/28 07:46:16;;;;;;;49.33;16.77;;;;;;;;;;5044733;28;21172;-44
2022/10/28 07:48:42;;;;;;;48.08;17.02;;;;;;;;;;5034152;28;20041;-43
2022/10/28 07:51:10;;;;;;;48.08;17.42;;;;;;;;;;5035766;28;20040;-45
2022/10/28 07:53:35;;;;;;;42.85;15.57;;;;;;;;;;5030195;28;20037;-43
2022/10/28 07:56:02;;;;;;;44.15;16.90;;;;;;;;;;5037371;28;20025;-45
2022/10/28 07:58:27;;;;;;;42.22;16.05;;;;;;;;;;5036286;28;20096;-43
2022/10/28 08:00:53;;;;;;;42.92;16.80;;;;;;;;;;5032825;28;20115;-44
2022/10/28 08:03:18;;;;;;;45.78;16.48;;;;;;;;;;5030964;28;20029;-44
2022/10/28 08:05:44;;;;;;;41.33;16.63;;;;;;;;;;5029540;28;20021;-43
2022/10/28 08:08:09;;;;;;;38.90;15.57;;;;;;;;;;5033715;28;20174;-45
2022/10/28 08:10:34;;;;;;;40.70;16.30;;;;;;;;;;5040153;28;20025;-44
2022/10/28 08:13:00;;;;;;;35.67;15.38;;;;;;;;;;5040027;28;20433;-43
2022/10/28 08:15:27;;;;;;;35.58;15.25;;;;;;;;;;5035407;28;20025;-45
2022/10/28 08:17:53;;;;;;;34.85;14.25;;;;;;;;;;5035467;28;20024;-44
2022/10/28 08:20:18;;;;;;;29.13;13.18;;;;;;;;;;5035613;28;20032;-42
2022/10/28 08:22:43;;;;;;;42.42;15.88;;;;;;;;;;5042024;28;20516;-44
2022/10/28 08:25:09;;;;;;;27.52;13.85;;;;;;;;;;5040572;28;20033;-44
2022/10/28 08:27:34;;;;;;;41.17;14.68;;;;;;;;;;5036351;28;20094;-44
2022/10/28 08:29:59;;;;;;;31.48;13.75;;;;;;;;;;5031661;28;20120;-45
2022/10/28 08:32:25;;;;;;;29.02;13.93;;;;;;;;;;5038036;28;20018;-45
2022/10/28 08:34:50;;;;;;;28.27;13.48;;;;;;;;;;5034694;28;20044;-49
2022/10/28 08:37:15;;;;;;;25.35;13.05;;;;;;;;;;5037109;28;20096;-49
2022/10/28 08:39:41;;;;;;;28.40;13.40;;;;;;;;;;5028587;28;20060;-46
2022/10/28 08:42:24;;;;;;;30.67;14.40;;;;;;;;;;5032577;28;20037;-45
2022/10/28 08:45:09;;;;;;;29.45;13.80;;;;;;;;;;5033902;28;20148;-46
2022/10/28 08:47:38;;;;;;;30.88;14.35;;;;;;;;;;5043302;28;20140;-45
2022/10/28 08:50:30;;;;;;;31.38;15.18;;;;;;;;;;5043749;28;20029;-44
2022/10/28 08:53:03;;;;;;;29.80;13.45;;;;;;;;;;5039700;28;20053;-44
2022/10/28 08:55:39;;;;;;;30.13;14.25;;;;;;;;;;5036904;28;20037;-44
2022/10/28 08:58:07;;;;;;;32.55;14.90;;;;;;;;;;5035168;28;20026;-44
2022/10/28 09:00:33;;;;;;;30.42;13.98;;;;;;;;;;5037291;28;20029;-45
2022/10/28 09:03:04;;;;;;;30.20;14.88;;;;;;;;;;5038643;28;20493;-45
2022/10/28 09:05:29;;;;;;;26.23;13.60;;;;;;;;;;5034415;28;20017;-45
2022/10/28 09:07:56;;;;;;;34.20;14.55;;;;;;;;;;5045825;28;20033;-44
2022/10/28 09:10:33;;;;;;;32.45;15.35;;;;;;;;;;5039985;28;20030;-45
2022/10/28 09:13:02;;;;;;;32.22;15.52;;;;;;;;;;5033953;28;20056;-46
2022/10/28 09:15:27;;;;;;;27.02;15.63;;;;;;;;;;5041853;28;20031;-44
2022/10/28 09:17:54;;;;;;;31.60;15.18;;;;;;;;;;5029874;28;20017;-47
2022/10/28 09:20:38;;;;;;;30.55;16.50;;;;;;;;;;5035177;28;20034;-46
2022/10/28 09:23:21;;;;;;;36.03;16.38;;;;;;;;;;5031405;28;20032;-46
2022/10/28 09:26:05;;;;;;;32.60;16.02;;;;;;;;;;5034527;28;20034;-43
2022/10/28 09:28:30;;;;;;;33.00;16.35;;;;;;;;;;5035570;28;20060;-45
2022/10/28 09:31:03;;;;;;;35.63;16.58;;;;;;;;;;5039228;28;20102;-45
2022/10/28 09:33:35;;;;;;;32.85;16.73;;;;;;;;;;5036790;28;20078;-46
2022/10/28 09:36:01;;;;;;;36.13;17.67;;;;;;;;;;5035124;28;20037;-47
2022/10/28 09:38:30;;;;;;;37.97;19.88;;;;;;;;;;5038731;28;20024;-45
2022/10/28 09:41:16;;;;;;;34.22;19.33;;;;;;;;;;5046414;28;20032;-43
2022/10/28 09:43:47;;;;;;;35.92;17.58;;;;;;;;;;5063934;28;20039;-45
2022/10/28 09:46:14;;;;;;;36.58;18.45;;;;;;;;;;5068846;28;20479;-43
2022/10/28 09:48:44;;;;;;;37.15;17.77;;;;;;;;;;5048539;28;20022;-44
2022/10/28 09:51:20;;;;;;;47.10;19.48;;;;;;;;;;5046108;28;20107;-44
2022/10/28 09:53:51;;;;;;;42.53;19.85;;;;;;;;;;5046833;28;20087;-45
2022/10/28 09:56:16;;;;;;;41.55;19.52;;;;;;;;;;5064241;28;20526;-44
2022/10/28 09:58:44;;;;;;;48.40;20.35;;;;;;;;;;5054044;28;20017;-44
2022/10/28 10:01:10;;;;;;;40.00;19.50;;;;;;;;;;5050008;28;20079;-46
2022/10/28 10:03:38;;;;;;;38.38;19.23;;;;;;;;;;5043492;28;20393;-44
2022/10/28 10:06:11;;;;;;;38.03;19.05;;;;;;;;;;5060837;28;20059;-45
2022/10/28 10:08:36;;;;;;;42.88;18.77;;;;;;;;;;5054361;28;20025;-44
2022/10/28 10:11:06;;;;;;;40.42;19.85;;;;;;;;;;5064215;28;20017;-46
2022/10/28 10:13:35;;;;;;;34.30;18.08;;;;;;;;;;5046971;28;20025;-44
2022/10/28 10:16:03;;;;;;;39.88;18.95;;;;;;;;;;5044122;28;20024;-45
2022/10/28 10:18:31;;;;;;;37.40;18.77;;;;;;;;;;5041381;28;20029;-44
2022/10/28 10:20:57;;;;;;;35.65;18.45;;;;;;;;;;5063383;28;20397;-44
2022/10/28 10:23:27;;;;;;;42.08;20.60;;;;;;;;;;5052632;28;20096;-44
2022/10/28 10:26:03;;;;;;;43.42;19.83;;;;;;;;;;5034478;28;20021;-45
2022/10/28 10:28:29;;;;;;;42.45;19.83;;;;;;;;;;5050483;28;20039;-44
2022/10/28 10:30:58;;;;;;;40.90;19.80;;;;;;;;;;5046538;28;20418;-44
2022/10/28 10:33:27;;;;;;;42.80;20.83;;;;;;;;;;5033639;28;20082;-44
2022/10/28 10:35:57;;;;;;;40.85;20.98;;;;;;;;;;5046060;28;20020;-45
2022/10/28 10:38:22;;;;;;;48.35;21.63;;;;;;;;;;5055848;28;20151;-44
2022/10/28 10:40:49;;;;;;;40.65;20.52;;;;;;;;;;5064635;28;20052;-44
2022/10/28 10:43:17;;;;;;;65.65;23.30;;;;;;;;;;5046668;28;20692;-45
2022/10/28 10:46:02;;;;;;;45.58;21.50;;;;;;;;;;5033579;28;20029;-44
2022/10/28 10:48:33;;;;;;;42.88;20.20;;;;;;;;;;5038498;28;20346;-43
2022/10/28 10:51:03;;;;;;;49.92;22.27;;;;;;;;;;5038392;28;20051;-45
2022/10/28 10:53:30;;;;;;;39.15;20.00;;;;;;;;;;5042079;28;20392;-44
2022/10/28 10:56:02;;;;;;;40.33;20.13;;;;;;;;;;5037025;28;20060;-45
2022/10/28 10:58:39;;;;;;;41.53;20.63;;;;;;;;;;5036553;28;20056;-45
2022/10/28 11:01:06;;;;;;;39.67;21.00;;;;;;;;;;5037881;28;20028;-44
2022/10/28 11:03:37;;;;;;;49.75;22.38;;;;;;;;;;5037703;28;20104;-44
2022/10/28 11:06:04;;;;;;;46.20;21.85;;;;;;;;;;5039144;28;20032;-44
2022/10/28 11:08:35;;;;;;;46.78;21.42;;;;;;;;;;5043887;28;20017;-45
2022/10/28 11:11:05;;;;;;;45.17;22.63;;;;;;;;;;5040522;28;20034;-44
2022/10/28 11:13:30;;;;;;;45.75;23.48;;;;;;;;;;5036669;28;20539;-43
2022/10/28 11:16:00;;;;;;;44.60;22.92;;;;;;;;;;5049033;28;20115;-44
2022/10/28 11:18:25;;;;;;;44.08;21.83;;;;;;;;;;5051169;28;20037;-44
2022/10/28 11:20:59;;;;;;;50.28;23.83;;;;;;;;;;5048474;28;20029;-45
2022/10/28 11:23:34;;;;;;;45.13;22.38;;;;;;;;;;5038039;28;20154;-45
2022/10/28 11:26:08;;;;;;;43.95;22.45;;;;;;;;;;5032232;28;20040;-45
2022/10/28 11:28:42;;;;;;;41.22;22.17;;;;;;;;;;5045257;28;20028;-45
2022/10/28 11:31:24;;;;;;;43.10;21.10;;;;;;;;;;5040824;28;20033;-44
2022/10/28 11:34:01;;;;;;;37.53;21.75;;;;;;;;;;5033289;28;20037;-44
2022/10/28 11:36:32;;;;;;;43.97;23.98;;;;;;;;;;5036595;28;20107;-45
2022/10/28 11:39:13;;;;;;;45.72;23.23;;;;;;;;;;5040742;28;20017;-45
2022/10/28 11:41:54;;;;;;;40.58;21.27;;;;;;;;;;5037200;28;20039;-45
2022/10/28 11:44:25;;;;;;;43.45;22.42;;;;;;;;;;5036214;28;20421;-45
2022/10/28 11:47:03;;;;;;;45.17;22.73;;;;;;;;;;5030726;28;20063;-45
2022/10/28 11:49:35;;;;;;;42.17;21.48;;;;;;;;;;5040018;28;20064;-46
2022/10/28 11:52:09;;;;;;;39.13;22.67;;;;;;;;;;5036513;28;20086;-45
2022/10/28 11:54:53;;;;;;;38.22;21.50;;;;;;;;;;5035261;28;20033;-47
2022/10/28 11:57:27;;;;;;;44.55;22.08;;;;;;;;;;5039949;28;20079;-45
2022/10/28 11:59:52;;;;;;;48.28;23.08;;;;;;;;;;5035952;28;20468;-45
2022/10/28 12:02:41;;;;;;;40.13;21.70;;;;;;;;;;5048346;28;20021;-46
2022/10/28 12:05:28;;;;;;;43.03;22.23;;;;;;;;;;5039169;28;20259;-45
2022/10/28 12:08:13;;;;;;;40.00;20.52;;;;;;;;;;5035648;28;20029;-47
2022/10/28 12:10:53;;;;;;;47.50;23.40;;;;;;;;;;5033845;28;20514;-45
2022/10/28 12:13:18;;;;;;;;;;;;;;;;;;5032596;28;20547;-45
2022/10/28 12:15:50;;;;;;;43.83;21.80;;;;;;;;;;5034380;28;20020;-45
2022/10/28 12:18:22;;;;;;;42.05;21.95;;;;;;;;;;5043096;28;20281;-47
2022/10/28 12:20:50;;;;;;;43.17;22.75;;;;;;;;;;5041176;28;20029;-45
2022/10/28 12:23:17;;;;;;;46.95;22.05;;;;;;;;;;5039712;28;20030;-46
2022/10/28 12:25:43;;;;;;;44.60;23.13;;;;;;;;;;5038789;28;20535;-45
2022/10/28 12:28:26;;;;;;;37.03;20.23;;;;;;;;;;5034439;28;20068;-45
2022/10/28 12:30:52;;;;;;;47.78;23.95;;;;;;;;;;5038748;28;20044;-45
2022/10/28 12:33:27;;;;;;;43.83;22.55;;;;;;;;;;5044199;28;20043;-45
2022/10/28 12:35:55;;;;;;;45.72;22.83;;;;;;;;;;5038805;28;20032;-45
2022/10/28 12:38:33;;;;;;;49.22;26.00;;;;;;;;;;5034150;28;20032;-45
2022/10/28 12:41:01;;;;;;;41.85;23.23;;;;;;;;;;5037933;28;20025;-45
2022/10/28 12:43:37;;;;;;;43.27;22.60;;;;;;;;;;5040100;28;20020;-45
2022/10/28 12:46:02;;;;;;;50.83;24.98;;;;;;;;;;5039053;28;20340;-45
2022/10/28 12:48:32;;;;;;;49.53;22.70;;;;;;;;;;5039325;28;20460;-45
2022/10/28 12:50:57;;;;;;;39.35;21.25;;;;;;;;;;5049069;28;20033;-45
2022/10/28 12:53:41;;;;;;;42.87;21.37;;;;;;;;;;5036867;28;20527;-45
2022/10/28 12:56:14;;;;;;;47.38;22.95;;;;;;;;;;5033962;28;20278;-46
2022/10/28 12:58:59;;;;;;;35.10;21.30;;;;;;;;;;5042535;28;20387;-45
2022/10/28 13:01:27;;;;;;;46.50;22.60;;;;;;;;;;5037511;28;20037;-45
2022/10/28 13:03:53;;;;;;;44.97;24.30;;;;;;;;;;5037424;28;20104;-45
2022/10/28 13:06:34;;;;;;;41.78;21.58;;;;;;;;;;5044459;28;20611;-45
2022/10/28 13:09:08;;;;;;;41.63;24.00;;;;;;;;;;5044794;28;20024;-44
2022/10/28 13:11:36;;;;;;;43.88;22.55;;;;;;;;;;5037589;28;20021;-44
2022/10/28 13:14:05;;;;;;;45.83;24.07;;;;;;;;;;5036417;28;20020;-44
2022/10/28 13:16:41;;;;;;;45.23;23.37;;;;;;;;;;5068621;28;20026;-44
2022/10/28 13:19:21;;;;;;;44.88;23.55;;;;;;;;;;5059398;28;20443;-44
2022/10/28 13:22:06;;;;;;;42.38;23.83;;;;;;;;;;5042604;28;20021;-45
2022/10/28 13:24:48;;;;;;;48.28;26.00;;;;;;;;;;5039754;28;20025;-43
2022/10/28 13:27:14;;;;;;;47.67;24.75;;;;;;;;;;5040869;28;20042;-44
2022/10/28 13:29:40;;;;;;;43.38;24.70;;;;;;;;;;5047648;28;20025;-44
2022/10/28 13:32:20;;;;;;;48.85;25.27;;;;;;;;;;5042571;28;20056;-44
2022/10/28 13:34:46;;;;;;;;;;;;;;;;;;5039911;28;20024;-46
2022/10/28 13:37:17;;;;;;;46.27;24.83;;;;;;;;;;5038858;28;19909;-45
2022/10/28 13:39:43;;;;;;;52.53;24.52;;;;;;;;;;5036817;28;20090;-47
2022/10/28 13:42:12;;;;;;;55.72;29.50;;;;;;;;;;5042790;28;20461;-45
2022/10/28 13:44:50;;;;;;;53.55;27.30;;;;;;;;;;5034416;28;20032;-44
2022/10/28 13:47:15;;;;;;;50.08;26.05;;;;;;;;;;5033527;28;20142;-45
2022/10/28 13:49:59;;;;;;;50.15;25.35;;;;;;;;;;5037703;28;20480;-45
2022/10/28 13:52:25;;;;;;;48.92;27.00;;;;;;;;;;5040685;28;20020;-46
2022/10/28 13:54:55;;;;;;;47.95;26.35;;;;;;;;;;5051462;28;20032;-46
2022/10/28 13:57:29;;;;;;;46.67;25.35;;;;;;;;;;5034728;28;20037;-44
2022/10/28 13:59:58;;;;;;;47.42;25.38;;;;;;;;;;5037012;28;20104;-46
2022/10/28 14:02:27;;;;;;;39.63;21.65;;;;;;;;;;5035025;28;20024;-46
2022/10/28 14:04:56;;;;;;;41.80;24.77;;;;;;;;;;5037333;28;20013;-45
2022/10/28 14:07:25;;;;;;;45.58;24.17;;;;;;;;;;5034632;28;20468;-44
2022/10/28 14:09:52;;;;;;;44.00;22.45;;;;;;;;;;5043835;28;20502;-44
2022/10/28 14:12:21;;;;;;;55.13;28.98;;;;;;;;;;5039305;28;20033;-45
2022/10/28 14:15:10;;;;;;;59.17;29.95;;;;;;;;;;5039165;28;20049;-45
2022/10/28 14:17:39;;;;;;;54.17;28.63;;;;;;;;;;5043162;28;20028;-45
2022/10/28 14:20:27;;;;;;;56.90;31.15;;;;;;;;;;5043925;28;20453;-46
2022/10/28 14:22:53;;;;;;;59.72;29.73;;;;;;;;;;5042600;28;20036;-44
2022/10/28 14:25:37;;;;;;;60.78;30.95;;;;;;;;;;5039580;28;20104;-44
2022/10/28 14:28:02;;;;;;;59.75;33.03;;;;;;;;;;5038915;28;20037;-46
2022/10/28 14:30:27;;;;;;;56.35;32.08;;;;;;;;;;5033949;28;20075;-45